createdAt,value
2022-10-04T02:44:32.736Z,98708.19
2022-10-04T03:14:39.180Z,98714.97
2022-10-04T03:44:44.583Z,98671.03
2022-10-04T04:14:51.431Z,98675.66
2022-10-04T04:44:57.810Z,98645.91
2022-10-04T05:15:01.939Z,98658.13
2022-10-04T05:45:15.277Z,98677.53
2022-10-04T06:15:42.758Z,98687.03
2022-10-04T06:45:58.357Z,98683.69
2022-10-04T07:16:06.185Z,98654.78
2022-10-04T07:46:16.268Z,98656.38
2022-10-04T08:16:34.199Z,98652.91
2022-10-04T08:47:22.449Z,98682.28
2022-10-04T09:17:33.555Z,98696.53
2022-10-04T09:47:45.641Z,98667.31
2022-10-04T10:17:54.555Z,98656.94
2022-10-04T10:48:01.905Z,98658.53
2022-10-04T11:18:29.705Z,98635.56
2022-10-04T11:48:43.808Z,98596.47
2022-10-04T12:19:15.490Z,98572.91
2022-10-04T12:49:26.920Z,98531.91
2022-10-04T13:19:35.187Z,98515.72
2022-10-04T13:49:52.541Z,98524.59
2022-10-04T14:20:24.247Z,98477.56
2022-10-04T14:50:31.507Z,98459.69
2022-10-04T15:20:49.614Z,98446.16
2022-10-04T15:51:01.604Z,98405.34
2022-10-04T16:21:15.980Z,98402.38
2022-10-04T16:51:50.404Z,98416.75
2022-10-04T17:22:06.882Z,98468.22
2022-10-04T17:52:39.422Z,98468.53
2022-10-04T18:22:49.351Z,98465.31
2022-10-04T18:53:01.884Z,98491.66
2022-10-04T19:23:12.302Z,98513.44
2022-10-04T19:53:19.371Z,98513.25
2022-10-04T20:23:49.905Z,98514.50
2022-10-04T20:53:54.721Z,98473.47
2022-10-04T21:23:58.978Z,98463.97
2022-10-04T21:54:03.258Z,98470.38
2022-10-04T22:24:11.977Z,98471.66
2022-10-04T22:54:17.845Z,98465.06
2022-10-04T23:24:23.493Z,98449.34
